Private Wetterstation Sandau
Wetterdaten: Montag, 20.08.2012
Datum Zeit Temp. A. Feuchte A. Luftdruck Regen Wind Richtung Richtung Taupunkt Windchill
20.08.2012 00:01 23,4 C 58 % 1015,7 hPa 0,0 l/m 4,0 km/h (1 Bft) S-SO 157 14,7 C 23,4 C
20.08.2012 00:06 23,4 C 58 % 1015,7 hPa 0,0 l/m 0,0 km/h (0 Bft) SO 135 14,7 C 23,4 C
20.08.2012 00:11 23,4 C 58 % 1015,7 hPa 0,0 l/m 0,0 km/h (0 Bft) S-SO 157 14,7 C 23,4 C
20.08.2012 00:16 23,4 C 58 % 1015,7 hPa 0,0 l/m 1,8 km/h (1 Bft) S-SO 157 14,7 C 23,4 C
20.08.2012 00:21 23,3 C 58 % 1015,6 hPa 0,0 l/m 0,0 km/h (0 Bft) S-SO 157 14,6 C 23,3 C
20.08.2012 00:26 23,3 C 58 % 1015,6 hPa 0,0 l/m 2,9 km/h (1 Bft) SO 135 14,6 C 23,3 C
20.08.2012 00:31 23,2 C 59 % 1015,6 hPa 0,0 l/m 1,1 km/h (1 Bft) S-SO 157 14,7 C 23,2 C
20.08.2012 00:36 23,2 C 59 % 1015,6 hPa 0,0 l/m 1,4 km/h (1 Bft) S-SO 157 14,7 C 23,2 C
20.08.2012 00:41 23,2 C 59 % 1015,5 hPa 0,0 l/m 2,2 km/h (1 Bft) S-SO 157 14,7 C 23,2 C
20.08.2012 00:46 23,2 C 59 % 1015,6 hPa 0,0 l/m 4,7 km/h (1 Bft) S 180 14,7 C 23,2 C
20.08.2012 00:51 23,2 C 59 % 1015,6 hPa 0,0 l/m 1,8 km/h (1 Bft) S-SO 157 14,7 C 23,2 C
20.08.2012 00:56 23,1 C 58 % 1015,7 hPa 0,0 l/m 0,0 km/h (0 Bft) S-SO 157 14,4 C 23,1 C
20.08.2012 01:01 23,0 C 59 % 1015,6 hPa 0,0 l/m 2,5 km/h (1 Bft) S 180 14,5 C 23,0 C
20.08.2012 01:06 22,9 C 59 % 1015,6 hPa 0,0 l/m 0,0 km/h (0 Bft) S-SW 202 14,5 C 22,9 C
20.08.2012 01:11 22,9 C 60 % 1015,6 hPa 0,0 l/m 2,2 km/h (1 Bft) S 180 14,7 C 22,9 C
20.08.2012 01:16 22,8 C 60 % 1015,6 hPa 0,0 l/m 0,0 km/h (0 Bft) S-SO 157 14,6 C 22,8 C
20.08.2012 01:21 22,8 C 60 % 1015,7 hPa 0,0 l/m 0,0 km/h (0 Bft) S-SO 157 14,6 C 22,8 C
20.08.2012 01:26 22,6 C 60 % 1015,8 hPa 0,0 l/m 0,0 km/h (0 Bft) S-SO 157 14,4 C 22,6 C
20.08.2012 01:31 22,5 C 62 % 1015,8 hPa 0,0 l/m 0,0 km/h (0 Bft) S-SO 157 14,8 C 22,5 C
20.08.2012 01:36 22,5 C 62 % 1015,8 hPa 0,0 l/m 0,0 km/h (0 Bft) S-SO 157 14,8 C 22,5 C
20.08.2012 01:41 22,4 C 62 % 1015,9 hPa 0,0 l/m 0,0 km/h (0 Bft) S-SO 157 14,8 C 22,4 C
20.08.2012 01:46 22,4 C 62 % 1016,0 hPa 0,0 l/m 0,0 km/h (0 Bft) S-SO 157 14,8 C 22,4 C
20.08.2012 01:51 22,4 C 63 % 1015,8 hPa 0,0 l/m 2,9 km/h (1 Bft) S-SO 157 15,0 C 22,4 C
20.08.2012 01:56 22,4 C 63 % 1015,7 hPa 0,0 l/m 2,9 km/h (1 Bft) S 180 15,0 C 22,4 C
20.08.2012 02:01 22,5 C 63 % 1016,1 hPa 0,0 l/m 2,2 km/h (1 Bft) W-SW 247 15,1 C 22,5 C
20.08.2012 02:06 22,5 C 63 % 1016,0 hPa 0,0 l/m 0,0 km/h (0 Bft) S-SW 202 15,1 C 22,5 C
20.08.2012 02:11 22,6 C 63 % 1015,8 hPa 0,0 l/m 4,0 km/h (1 Bft) SO 135 15,2 C 22,6 C
20.08.2012 02:16 22,7 C 63 % 1015,4 hPa 0,0 l/m 7,2 km/h (2 Bft) SO 135 15,3 C 22,7 C
20.08.2012 02:21 22,8 C 63 % 1015,1 hPa 0,0 l/m 4,0 km/h (1 Bft) SO 135 15,4 C 22,8 C
20.08.2012 02:26 22,8 C 63 % 1015,3 hPa 0,0 l/m 4,0 km/h (1 Bft) S-SW 202 15,4 C 22,8 C
20.08.2012 02:31 22,9 C 63 % 1015,5 hPa 0,0 l/m 0,0 km/h (0 Bft) NW 315 15,5 C 22,9 C
20.08.2012 02:36 22,8 C 64 % 1015,7 hPa 0,0 l/m 3,2 km/h (1 Bft) S 180 15,6 C 22,8 C
20.08.2012 02:41 22,7 C 63 % 1015,8 hPa 0,0 l/m 4,7 km/h (1 Bft) S 180 15,3 C 22,7 C
20.08.2012 02:46 22,6 C 64 % 1015,5 hPa 0,0 l/m 2,2 km/h (1 Bft) S-SW 202 15,4 C 22,6 C
20.08.2012 02:51 22,6 C 64 % 1015,5 hPa 0,0 l/m 1,4 km/h (1 Bft) S-SO 157 15,4 C 22,6 C
20.08.2012 02:56 22,7 C 64 % 1015,6 hPa 0,0 l/m 0,0 km/h (0 Bft) S-SO 157 15,5 C 22,7 C
20.08.2012 03:01 22,6 C 64 % 1015,6 hPa 0,0 l/m 2,2 km/h (1 Bft) S-SO 157 15,4 C 22,6 C
20.08.2012 03:06 22,6 C 64 % 1015,6 hPa 0,0 l/m 0,0 km/h (0 Bft) S-SO 157 15,4 C 22,6 C
20.08.2012 03:11 22,5 C 64 % 1015,6 hPa 0,0 l/m 0,0 km/h (0 Bft) S-SO 157 15,3 C 22,5 C
20.08.2012 03:16 22,4 C 64 % 1015,6 hPa 0,0 l/m 0,0 km/h (0 Bft) S 180 15,2 C 22,4 C
20.08.2012 03:21 22,4 C 65 % 1015,6 hPa 0,0 l/m 0,0 km/h (0 Bft) S 180 15,5 C 22,4 C
20.08.2012 03:26 22,3 C 65 % 1015,5 hPa 0,0 l/m 0,0 km/h (0 Bft) S 180 15,4 C 22,3 C
20.08.2012 03:31 22,2 C 65 % 1015,4 hPa 0,0 l/m 0,0 km/h (0 Bft) S 180 15,3 C 22,2 C
20.08.2012 03:36 22,1 C 65 % 1015,7 hPa 0,0 l/m 1,4 km/h (1 Bft) S-SO 157 15,2 C 22,1 C
20.08.2012 03:41 21,9 C 66 % 1015,7 hPa 0,0 l/m 1,4 km/h (1 Bft) S-SO 157 15,3 C 21,9 C
20.08.2012 03:46 21,9 C 66 % 1015,7 hPa 0,0 l/m 0,0 km/h (0 Bft) S-SO 157 15,3 C 21,9 C
20.08.2012 03:51 21,9 C 66 % 1015,6 hPa 0,0 l/m 0,0 km/h (0 Bft) S-SO 157 15,3 C 21,9 C
20.08.2012 03:56 21,8 C 66 % 1015,5 hPa 0,0 l/m 2,5 km/h (1 Bft) S-SO 157 15,2 C 21,8 C
20.08.2012 04:01 21,8 C 67 % 1015,4 hPa 0,0 l/m 1,1 km/h (1 Bft) S-SO 157 15,4 C 21,8 C
20.08.2012 04:06 21,8 C 67 % 1015,5 hPa 0,0 l/m 0,0 km/h (0 Bft) S-SO 157 15,4 C 21,8 C
20.08.2012 04:11 21,7 C 67 % 1015,5 hPa 0,0 l/m 0,0 km/h (0 Bft) S-SO 157 15,3 C 21,7 C
20.08.2012 04:16 21,6 C 67 % 1015,5 hPa 0,0 l/m 0,0 km/h (0 Bft) S-SO 157 15,2 C 21,6 C
20.08.2012 04:21 21,6 C 67 % 1015,5 hPa 0,0 l/m 0,0 km/h (0 Bft) S-SO 157 15,2 C 21,6 C
20.08.2012 04:26 21,5 C 67 % 1015,4 hPa 0,0 l/m 0,0 km/h (0 Bft) S-SO 157 15,1 C 21,5 C
20.08.2012 04:31 21,4 C 67 % 1015,4 hPa 0,0 l/m 0,0 km/h (0 Bft) S-SO 157 15,0 C 21,4 C
20.08.2012 04:36 21,3 C 67 % 1015,4 hPa 0,0 l/m 1,4 km/h (1 Bft) S-SO 157 14,9 C 21,3 C
20.08.2012 04:41 21,3 C 68 % 1015,2 hPa 0,0 l/m 1,4 km/h (1 Bft) S-SO 157 15,1 C 21,3 C
20.08.2012 04:46 21,2 C 68 % 1015,1 hPa 0,0 l/m 2,2 km/h (1 Bft) S-SO 157 15,1 C 21,2 C
20.08.2012 04:51 21,1 C 68 % 1015,3 hPa 0,0 l/m 0,0 km/h (0 Bft) S-SO 157 15,0 C 21,1 C
20.08.2012 04:56 21,1 C 69 % 1015,3 hPa 0,0 l/m 0,0 km/h (0 Bft) S-SO 157 15,2 C 21,1 C
20.08.2012 05:01 21,0 C 69 % 1015,3 hPa 0,0 l/m 0,0 km/h (0 Bft) S-SO 157 15,1 C 21,0 C
20.08.2012 05:06 20,9 C 69 % 1015,3 hPa 0,0 l/m 0,0 km/h (0 Bft) S-SO 157 15,0 C 20,9 C
20.08.2012 05:11 20,9 C 70 % 1015,2 hPa 0,0 l/m 0,0 km/h (0 Bft) S-SO 157 15,2 C 20,9 C
20.08.2012 05:16 20,9 C 70 % 1015,4 hPa 0,0 l/m 0,0 km/h (0 Bft) S-SO 157 15,2 C 20,9 C
20.08.2012 05:21 20,9 C 71 % 1015,5 hPa 0,0 l/m 0,0 km/h (0 Bft) S-SO 157 15,4 C 20,9 C
20.08.2012 05:26 20,9 C 70 % 1015,6 hPa 0,0 l/m 0,0 km/h (0 Bft) S-SO 157 15,2 C 20,9 C
20.08.2012 05:31 20,8 C 71 % 1015,6 hPa 0,0 l/m 0,0 km/h (0 Bft) S-SO 157 15,3 C 20,8 C
20.08.2012 05:36 20,8 C 71 % 1015,7 hPa 0,0 l/m 0,0 km/h (0 Bft) S-SO 157 15,3 C 20,8 C
20.08.2012 05:41 20,8 C 70 % 1015,8 hPa 0,0 l/m 2,2 km/h (1 Bft) S-SO 157 15,1 C 20,8 C
20.08.2012 05:46 20,7 C 71 % 1015,7 hPa 0,0 l/m 0,0 km/h (0 Bft) S-SO 157 15,2 C 20,7 C
20.08.2012 05:51 20,7 C 71 % 1015,7 hPa 0,0 l/m 0,0 km/h (0 Bft) S-SO 157 15,2 C 20,7 C
20.08.2012 05:56 20,6 C 72 % 1015,5 hPa 0,0 l/m 2,5 km/h (1 Bft) SO 135 15,4 C 20,6 C
20.08.2012 06:01 20,5 C 73 % 1015,6 hPa 0,0 l/m 2,5 km/h (1 Bft) SO 135 15,5 C 20,5 C
20.08.2012 06:06 20,5 C 73 % 1015,7 hPa 0,0 l/m 0,0 km/h (0 Bft) SO 135 15,5 C 20,5 C
20.08.2012 06:11 20,5 C 74 % 1015,7 hPa 0,0 l/m 3,2 km/h (1 Bft) SO 135 15,7 C 20,5 C
20.08.2012 06:16 20,4 C 73 % 1015,7 hPa 0,0 l/m 2,5 km/h (1 Bft) SO 135 15,4 C 20,4 C
20.08.2012 06:21 20,4 C 73 % 1015,7 hPa 0,0 l/m 1,4 km/h (1 Bft) O-SO 112 15,4 C 20,4 C
20.08.2012 06:26 20,4 C 73 % 1015,8 hPa 0,0 l/m 1,8 km/h (1 Bft) SO 135 15,4 C 20,4 C
20.08.2012 06:31 20,4 C 73 % 1015,8 hPa 0,0 l/m 0,0 km/h (0 Bft) SO 135 15,4 C 20,4 C
20.08.2012 06:36 20,4 C 73 % 1016,0 hPa 0,0 l/m 0,0 km/h (0 Bft) SO 135 15,4 C 20,4 C
20.08.2012 06:41 20,5 C 73 % 1016,0 hPa 0,0 l/m 0,0 km/h (0 Bft) SO 135 15,5 C 20,5 C
20.08.2012 06:46 20,6 C 73 % 1016,0 hPa 0,0 l/m 0,0 km/h (0 Bft) SO 135 15,6 C 20,6 C
20.08.2012 06:51 20,8 C 73 % 1016,1 hPa 0,0 l/m 2,5 km/h (1 Bft) SO 135 15,8 C 20,8 C
20.08.2012 06:56 20,9 C 73 % 1016,1 hPa 0,0 l/m 1,4 km/h (1 Bft) SO 135 15,9 C 20,9 C
20.08.2012 07:01 21,2 C 72 % 1016,3 hPa 0,0 l/m 0,0 km/h (0 Bft) SO 135 15,9 C 21,2 C
20.08.2012 07:06 21,5 C 72 % 1016,2 hPa 0,0 l/m 0,0 km/h (0 Bft) SO 135 16,2 C 21,5 C
20.08.2012 07:11 21,8 C 71 % 1016,1 hPa 0,0 l/m 4,3 km/h (1 Bft) S-SO 157 16,3 C 21,8 C
20.08.2012 07:16 22,0 C 69 % 1016,1 hPa 0,0 l/m 3,2 km/h (1 Bft) S-SO 157 16,0 C 22,0 C
20.08.2012 07:21 22,2 C 68 % 1015,9 hPa 0,0 l/m 4,3 km/h (1 Bft) S-SO 157 16,0 C 22,2 C
20.08.2012 07:26 22,3 C 68 % 1015,8 hPa 0,0 l/m 4,3 km/h (1 Bft) S-SO 157 16,1 C 22,3 C
20.08.2012 07:31 22,3 C 68 % 1015,8 hPa 0,0 l/m 1,1 km/h (1 Bft) S-SO 157 16,1 C 22,3 C
20.08.2012 07:36 22,3 C 68 % 1015,9 hPa 0,0 l/m 3,6 km/h (1 Bft) S-SO 157 16,1 C 22,3 C
20.08.2012 07:41 22,3 C 68 % 1015,7 hPa 0,0 l/m 3,6 km/h (1 Bft) S-SO 157 16,1 C 22,3 C
20.08.2012 07:46 22,3 C 68 % 1015,7 hPa 0,0 l/m 0,0 km/h (0 Bft) S 180 16,1 C 22,3 C
20.08.2012 07:51 22,3 C 69 % 1015,7 hPa 0,0 l/m 0,0 km/h (0 Bft) S-SO 157 16,3 C 22,3 C
20.08.2012 07:56 22,4 C 69 % 1015,4 hPa 0,0 l/m 1,4 km/h (1 Bft) S-SO 157 16,4 C 22,4 C
20.08.2012 08:01 22,6 C 69 % 1015,5 hPa 0,0 l/m 2,2 km/h (1 Bft) S 180 16,6 C 22,6 C
20.08.2012 08:06 22,9 C 68 % 1015,6 hPa 0,0 l/m 5,4 km/h (1 Bft) S 180 16,7 C 22,9 C
20.08.2012 08:11 23,2 C 68 % 1015,6 hPa 0,0 l/m 6,1 km/h (2 Bft) S 180 17,0 C 23,2 C
20.08.2012 08:16 23,4 C 67 % 1015,6 hPa 0,0 l/m 6,8 km/h (2 Bft) S-SW 202 16,9 C 23,4 C
20.08.2012 08:21 23,6 C 66 % 1015,6 hPa 0,0 l/m 10,8 km/h (2 Bft) S-SW 202 16,9 C 23,6 C
20.08.2012 08:26 23,9 C 65 % 1015,7 hPa 0,0 l/m 8,3 km/h (2 Bft) S 180 16,9 C 23,9 C
20.08.2012 08:31 24,1 C 65 % 1015,7 hPa 0,0 l/m 10,4 km/h (2 Bft) SW 225 17,1 C 24,1 C
20.08.2012 08:36 24,4 C 64 % 1015,7 hPa 0,0 l/m 9,4 km/h (2 Bft) S-SW 202 17,1 C 24,4 C
20.08.2012 08:41 24,7 C 63 % 1015,9 hPa 0,0 l/m 7,6 km/h (2 Bft) S-SW 202 17,2 C 24,7 C
20.08.2012 08:46 24,9 C 62 % 1015,8 hPa 0,0 l/m 4,0 km/h (1 Bft) SO 135 17,1 C 24,9 C
20.08.2012 08:51 25,2 C 62 % 1015,7 hPa 0,0 l/m 6,5 km/h (2 Bft) SW 225 17,4 C 25,2 C
20.08.2012 08:56 25,6 C 62 % 1015,6 hPa 0,0 l/m 3,6 km/h (1 Bft) SW 225 17,8 C 25,6 C
20.08.2012 09:01 25,9 C 62 % 1015,7 hPa 0,0 l/m 2,9 km/h (1 Bft) SW 225 18,0 C 25,9 C
20.08.2012 09:06 26,4 C 60 % 1015,8 hPa 0,0 l/m 1,4 km/h (1 Bft) S-SW 202 18,0 C 26,4 C
20.08.2012 09:11 26,9 C 59 % 1016,0 hPa 0,0 l/m 4,0 km/h (1 Bft) S 180 18,2 C 26,9 C
20.08.2012 09:16 27,4 C 58 % 1016,0 hPa 0,0 l/m 0,0 km/h (0 Bft) S-SW 202 18,4 C 27,4 C
20.08.2012 09:21 27,8 C 57 % 1016,2 hPa 0,0 l/m 2,5 km/h (1 Bft) W-SW 247 18,5 C 27,8 C
20.08.2012 09:26 28,2 C 57 % 1016,1 hPa 0,0 l/m 2,5 km/h (1 Bft) SW 225 18,9 C 28,2 C
20.08.2012 09:31 28,6 C 56 % 1016,2 hPa 0,0 l/m 2,9 km/h (1 Bft) W-SW 247 18,9 C 28,6 C
20.08.2012 09:36 28,8 C 56 % 1016,2 hPa 0,0 l/m 4,0 km/h (1 Bft) S-SO 157 19,1 C 28,8 C
20.08.2012 09:41 28,7 C 56 % 1016,5 hPa 0,0 l/m 0,0 km/h (0 Bft) S-SO 157 19,0 C 28,7 C
20.08.2012 09:46 28,5 C 56 % 1016,8 hPa 0,0 l/m 0,0 km/h (0 Bft) W 270 18,8 C 28,5 C
20.08.2012 09:51 28,1 C 57 % 1017,0 hPa 0,0 l/m 0,0 km/h (0 Bft) W-NW 292 18,8 C 28,1 C
20.08.2012 09:56 27,8 C 58 % 1017,6 hPa 0,0 l/m 15,5 km/h (3 Bft) N-NW 337 18,8 C 27,8 C
20.08.2012 10:01 27,3 C 58 % 1017,8 hPa 0,0 l/m 9,0 km/h (2 Bft) N-NO 22 18,3 C 27,3 C
20.08.2012 10:06 26,8 C 60 % 1017,8 hPa 0,0 l/m 10,4 km/h (2 Bft) N-NW 337 18,4 C 26,8 C
20.08.2012 10:11 26,4 C 61 % 1017,8 hPa 0,0 l/m 14,8 km/h (3 Bft) N-NO 22 18,3 C 26,4 C
20.08.2012 10:16 26,2 C 62 % 1017,9 hPa 0,0 l/m 14,8 km/h (3 Bft) N-NO 22 18,3 C 26,2 C
20.08.2012 10:21 26,1 C 62 % 1017,9 hPa 0,0 l/m 15,5 km/h (3 Bft) N-NO 22 18,2 C 26,1 C
20.08.2012 10:26 26,1 C 63 % 1017,8 hPa 0,0 l/m 12,2 km/h (2 Bft) NO 45 18,5 C 26,1 C
20.08.2012 10:31 25,9 C 63 % 1017,5 hPa 0,0 l/m 8,6 km/h (2 Bft) NO 45 18,3 C 25,9 C
20.08.2012 10:36 26,1 C 63 % 1017,4 hPa 0,0 l/m 11,2 km/h (2 Bft) N-NO 22 18,5 C 26,1 C
20.08.2012 10:41 26,3 C 63 % 1017,1 hPa 0,0 l/m 10,1 km/h (2 Bft) O-NO 67 18,7 C 26,3 C
20.08.2012 10:46 26,5 C 62 % 1017,0 hPa 0,0 l/m 10,8 km/h (2 Bft) O-NO 67 18,6 C 26,5 C
20.08.2012 10:51 26,7 C 62 % 1016,7 hPa 0,0 l/m 17,3 km/h (3 Bft) O-NO 67 18,8 C 26,7 C
20.08.2012 10:56 27,0 C 61 % 1016,6 hPa 0,0 l/m 7,2 km/h (2 Bft) NO 45 18,8 C 27,0 C
20.08.2012 11:01 27,3 C 60 % 1016,7 hPa 0,0 l/m 9,0 km/h (2 Bft) NO 45 18,8 C 27,3 C
20.08.2012 11:06 27,6 C 59 % 1016,6 hPa 0,0 l/m 2,5 km/h (1 Bft) O-NO 67 18,8 C 27,6 C
20.08.2012 11:11 27,9 C 58 % 1016,5 hPa 0,0 l/m 9,7 km/h (2 Bft) SO 135 18,9 C 27,9 C
20.08.2012 11:16 28,2 C 57 % 1016,2 hPa 0,0 l/m 5,8 km/h (2 Bft) O-SO 112 18,9 C 28,2 C
20.08.2012 11:21 28,6 C 56 % 1016,3 hPa 0,0 l/m 7,9 km/h (2 Bft) O-NO 67 18,9 C 28,6 C
20.08.2012 11:26 28,6 C 56 % 1016,3 hPa 0,0 l/m 11,9 km/h (2 Bft) SO 135 18,9 C 28,6 C
20.08.2012 11:31 28,5 C 55 % 1016,3 hPa 0,0 l/m 3,2 km/h (1 Bft) O-SO 112 18,6 C 28,5 C
20.08.2012 11:36 28,4 C 55 % 1016,1 hPa 0,0 l/m 15,5 km/h (3 Bft) SO 135 18,5 C 28,4 C
20.08.2012 11:41 28,5 C 55 % 1015,9 hPa 0,0 l/m 14,8 km/h (3 Bft) O 90 18,6 C 28,5 C
20.08.2012 11:46 28,8 C 55 % 1016,0 hPa 0,0 l/m 8,6 km/h (2 Bft) O-SO 112 18,8 C 28,8 C
20.08.2012 11:51 29,1 C 54 % 1016,0 hPa 0,0 l/m 7,9 km/h (2 Bft) S-SO 157 18,8 C 29,1 C
20.08.2012 11:56 29,4 C 53 % 1016,0 hPa 0,0 l/m 6,8 km/h (2 Bft) O-SO 112 18,8 C 29,4 C
20.08.2012 12:01 29,8 C 51 % 1015,9 hPa 0,0 l/m 10,8 km/h (2 Bft) O-NO 67 18,5 C 29,8 C
20.08.2012 12:06 30,1 C 51 % 1016,0 hPa 0,0 l/m 12,2 km/h (2 Bft) S-SO 157 18,8 C 30,1 C
20.08.2012 12:11 30,3 C 50 % 1015,9 hPa 0,0 l/m 16,2 km/h (3 Bft) SO 135 18,7 C 30,3 C
20.08.2012 12:16 30,6 C 50 % 1015,9 hPa 0,0 l/m 7,2 km/h (2 Bft) S-SO 157 19,0 C 30,6 C
20.08.2012 12:21 30,9 C 49 % 1016,0 hPa 0,0 l/m 7,2 km/h (2 Bft) O-SO 112 18,9 C 30,9 C
20.08.2012 12:26 31,3 C 47 % 1016,3 hPa 0,0 l/m 5,4 km/h (1 Bft) SO 135 18,6 C 31,3 C
20.08.2012 12:31 31,6 C 47 % 1016,3 hPa 0,0 l/m 4,7 km/h (1 Bft) SO 135 18,9 C 31,6 C
20.08.2012 12:36 32,2 C 46 % 1016,0 hPa 0,0 l/m 3,6 km/h (1 Bft) O-NO 67 19,1 C 32,2 C
20.08.2012 12:41 32,6 C 44 % 1016,0 hPa 0,0 l/m 6,1 km/h (2 Bft) O-SO 112 18,7 C 32,6 C
20.08.2012 12:46 32,8 C 44 % 1016,0 hPa 0,0 l/m 4,0 km/h (1 Bft) O-SO 112 18,9 C 32,8 C
20.08.2012 12:51 33,1 C 44 % 1015,9 hPa 0,0 l/m 7,2 km/h (2 Bft) S 180 19,2 C 33,1 C
20.08.2012 12:56 33,4 C 42 % 1015,8 hPa 0,0 l/m 7,9 km/h (2 Bft) S-SO 157 18,7 C 33,4 C
20.08.2012 13:01 33,6 C 41 % 1015,8 hPa 0,0 l/m 7,2 km/h (2 Bft) SO 135 18,5 C 33,6 C
20.08.2012 13:06 33,8 C 40 % 1015,7 hPa 0,0 l/m 2,5 km/h (1 Bft) SO 135 18,3 C 33,8 C
20.08.2012 13:11 33,9 C 40 % 1015,6 hPa 0,0 l/m 9,0 km/h (2 Bft) S-SO 157 18,4 C 33,9 C
20.08.2012 13:16 34,1 C 41 % 1015,4 hPa 0,0 l/m 5,0 km/h (1 Bft) SW 225 18,9 C 34,1 C
20.08.2012 13:21 34,3 C 41 % 1015,3 hPa 0,0 l/m 0,0 km/h (0 Bft) S-SW 202 19,1 C 34,3 C
20.08.2012 13:26 34,6 C 40 % 1015,2 hPa 0,0 l/m 6,1 km/h (2 Bft) S-SO 157 19,0 C 34,6 C
20.08.2012 13:31 34,9 C 40 % 1015,1 hPa 0,0 l/m 4,0 km/h (1 Bft) SO 135 19,3 C 34,9 C
20.08.2012 13:36 35,2 C 39 % 1015,5 hPa 0,0 l/m 2,9 km/h (1 Bft) S-SW 202 19,1 C 35,2 C
20.08.2012 13:41 35,3 C 39 % 1015,5 hPa 0,0 l/m 2,5 km/h (1 Bft) SO 135 19,2 C 35,3 C
20.08.2012 13:46 35,4 C 39 % 1015,4 hPa 0,0 l/m 7,2 km/h (2 Bft) S-SW 202 19,3 C 35,4 C
20.08.2012 13:51 35,3 C 39 % 1015,8 hPa 0,0 l/m 7,2 km/h (2 Bft) W-SW 247 19,2 C 35,3 C
20.08.2012 13:56 35,1 C 39 % 1016,2 hPa 0,0 l/m 1,4 km/h (1 Bft) W-NW 292 19,0 C 35,1 C
20.08.2012 14:01 34,9 C 39 % 1016,3 hPa 0,0 l/m 4,3 km/h (1 Bft) SW 225 18,8 C 34,9 C
20.08.2012 14:06 34,6 C 39 % 1016,2 hPa 0,0 l/m 2,5 km/h (1 Bft) W 270 18,6 C 34,6 C
20.08.2012 14:11 34,1 C 41 % 1016,4 hPa 0,0 l/m 9,0 km/h (2 Bft) SW 225 18,9 C 34,1 C
20.08.2012 14:16 33,6 C 41 % 1016,4 hPa 0,0 l/m 5,8 km/h (2 Bft) W-SW 247 18,5 C 33,6 C
20.08.2012 14:21 32,9 C 44 % 1016,1 hPa 0,0 l/m 10,8 km/h (2 Bft) W-SW 247 19,0 C 32,9 C
20.08.2012 14:26 32,1 C 49 % 1015,4 hPa 1,0 l/m 4,3 km/h (1 Bft) S 180 20,0 C 32,1 C
20.08.2012 14:31 31,1 C 55 % 1015,7 hPa 0,0 l/m 4,3 km/h (1 Bft) W-NW 292 21,0 C 31,1 C
20.08.2012 14:36 30,2 C 53 % 1016,1 hPa 0,0 l/m 4,0 km/h (1 Bft) S-SW 202 19,5 C 30,2 C
20.08.2012 14:41 29,3 C 55 % 1016,1 hPa 0,0 l/m 3,2 km/h (1 Bft) W 270 19,3 C 29,3 C
20.08.2012 14:46 28,8 C 59 % 1015,9 hPa 0,0 l/m 4,0 km/h (1 Bft) N 360 20,0 C 28,8 C
20.08.2012 14:51 28,1 C 62 % 1015,5 hPa 0,0 l/m 3,6 km/h (1 Bft) N 360 20,1 C 28,1 C
20.08.2012 14:56 27,5 C 64 % 1015,5 hPa 0,0 l/m 5,0 km/h (1 Bft) NO 45 20,1 C 27,5 C
20.08.2012 15:01 27,1 C 66 % 1015,6 hPa 0,0 l/m 9,7 km/h (2 Bft) N 360 20,2 C 27,1 C
20.08.2012 15:06 26,9 C 66 % 1015,4 hPa 0,0 l/m 4,7 km/h (1 Bft) N 360 20,0 C 26,9 C
20.08.2012 15:11 26,9 C 66 % 1015,7 hPa 0,0 l/m 4,7 km/h (1 Bft) N-NO 22 20,0 C 26,9 C
20.08.2012 15:16 27,2 C 64 % 1015,7 hPa 0,0 l/m 7,2 km/h (2 Bft) N 360 19,8 C 27,2 C
20.08.2012 15:21 27,6 C 63 % 1015,8 hPa 0,0 l/m 8,3 km/h (2 Bft) N 360 19,9 C 27,6 C
20.08.2012 15:26 28,3 C 62 % 1015,8 hPa 0,0 l/m 8,3 km/h (2 Bft) N-NO 22 20,3 C 28,3 C
20.08.2012 15:31 29,1 C 60 % 1015,9 hPa 0,0 l/m 3,6 km/h (1 Bft) N-NO 22 20,5 C 29,1 C
20.08.2012 15:36 29,8 C 58 % 1016,0 hPa 0,0 l/m 3,2 km/h (1 Bft) NW 315 20,6 C 29,8 C
20.08.2012 15:41 30,3 C 56 % 1015,9 hPa 0,0 l/m 5,0 km/h (1 Bft) W-NW 292 20,5 C 30,3 C
20.08.2012 15:46 30,9 C 54 % 1016,0 hPa 0,0 l/m 8,6 km/h (2 Bft) W-NW 292 20,5 C 30,9 C
20.08.2012 15:51 31,4 C 53 % 1016,0 hPa 0,0 l/m 3,6 km/h (1 Bft) W-NW 292 20,6 C 31,4 C
20.08.2012 15:56 31,8 C 51 % 1016,0 hPa 0,0 l/m 3,2 km/h (1 Bft) N 360 20,4 C 31,8 C
20.08.2012 16:01 32,1 C 51 % 1016,1 hPa 0,0 l/m 2,5 km/h (1 Bft) N-NW 337 20,7 C 32,1 C
20.08.2012 16:06 32,3 C 52 % 1016,0 hPa 0,0 l/m 5,0 km/h (1 Bft) NW 315 21,2 C 32,3 C
20.08.2012 16:11 32,6 C 52 % 1016,0 hPa 0,0 l/m 2,2 km/h (1 Bft) W 270 21,4 C 32,6 C
20.08.2012 16:16 32,6 C 52 % 1015,8 hPa 0,0 l/m 0,0 km/h (0 Bft) W 270 21,4 C 32,6 C
20.08.2012 16:21 32,4 C 50 % 1015,7 hPa 0,0 l/m 5,8 km/h (2 Bft) W-SW 247 20,6 C 32,4 C
20.08.2012 16:26 32,4 C 49 % 1015,6 hPa 0,0 l/m 5,8 km/h (2 Bft) W-NW 292 20,3 C 32,4 C
20.08.2012 16:31 32,4 C 49 % 1015,7 hPa 0,0 l/m 4,7 km/h (1 Bft) W-SW 247 20,3 C 32,4 C
20.08.2012 16:36 32,3 C 50 % 1016,0 hPa 0,0 l/m 3,2 km/h (1 Bft) W-NW 292 20,5 C 32,3 C
20.08.2012 16:41 32,1 C 50 % 1016,3 hPa 0,0 l/m 4,3 km/h (1 Bft) NW 315 20,3 C 32,1 C
20.08.2012 16:46 31,9 C 51 % 1016,4 hPa 0,0 l/m 6,8 km/h (2 Bft) N-NW 337 20,5 C 31,9 C
20.08.2012 16:51 31,9 C 52 % 1016,6 hPa 0,0 l/m 4,3 km/h (1 Bft) N-NO 22 20,8 C 31,9 C
20.08.2012 16:56 31,8 C 52 % 1016,6 hPa 0,0 l/m 3,6 km/h (1 Bft) N-NO 22 20,7 C 31,8 C
20.08.2012 17:01 31,8 C 52 % 1016,6 hPa 0,0 l/m 5,8 km/h (2 Bft) N 360 20,7 C 31,8 C
20.08.2012 17:06 31,6 C 52 % 1016,7 hPa 0,0 l/m 14,8 km/h (3 Bft) W-NW 292 20,5 C 31,6 C
20.08.2012 17:11 31,3 C 51 % 1016,7 hPa 0,0 l/m 8,3 km/h (2 Bft) W-NW 292 19,9 C 31,3 C
20.08.2012 17:16 31,2 C 52 % 1016,7 hPa 0,0 l/m 13,3 km/h (3 Bft) W-NW 292 20,1 C 31,2 C
20.08.2012 17:21 31,2 C 51 % 1016,6 hPa 0,0 l/m 11,5 km/h (2 Bft) W-NW 292 19,8 C 31,2 C
20.08.2012 17:26 31,4 C 51 % 1016,7 hPa 0,0 l/m 5,0 km/h (1 Bft) W-NW 292 20,0 C 31,4 C
20.08.2012 17:31 31,6 C 51 % 1016,7 hPa 0,0 l/m 10,8 km/h (2 Bft) W-NW 292 20,2 C 31,6 C
20.08.2012 17:36 31,6 C 50 % 1016,6 hPa 0,0 l/m 13,7 km/h (3 Bft) W-NW 292 19,9 C 31,6 C
20.08.2012 17:41 31,6 C 50 % 1016,6 hPa 0,0 l/m 12,6 km/h (3 Bft) W-SW 247 19,9 C 31,6 C
20.08.2012 17:46 31,6 C 50 % 1016,7 hPa 0,0 l/m 11,5 km/h (2 Bft) W 270 19,9 C 31,6 C
20.08.2012 17:51 31,3 C 51 % 1016,7 hPa 0,0 l/m 4,0 km/h (1 Bft) W-NW 292 19,9 C 31,3 C
20.08.2012 17:56 30,9 C 52 % 1016,7 hPa 0,0 l/m 4,3 km/h (1 Bft) W-NW 292 19,9 C 30,9 C
20.08.2012 18:01 30,5 C 53 % 1016,7 hPa 0,0 l/m 6,5 km/h (2 Bft) N-NW 337 19,8 C 30,5 C
20.08.2012 18:06 30,2 C 53 % 1016,8 hPa 0,0 l/m 17,6 km/h (3 Bft) N 360 19,5 C 30,2 C
20.08.2012 18:11 30,1 C 54 % 1016,8 hPa 0,0 l/m 11,2 km/h (2 Bft) NW 315 19,7 C 30,1 C
20.08.2012 18:16 29,9 C 55 % 1016,8 hPa 0,0 l/m 14,4 km/h (3 Bft) W 270 19,9 C 29,9 C
20.08.2012 18:21 30,0 C 55 % 1016,8 hPa 0,0 l/m 9,4 km/h (2 Bft) W-NW 292 19,9 C 30,0 C
20.08.2012 18:26 29,9 C 55 % 1016,9 hPa 0,0 l/m 16,9 km/h (3 Bft) W 270 19,9 C 29,9 C
20.08.2012 18:31 29,9 C 55 % 1016,8 hPa 0,0 l/m 11,9 km/h (2 Bft) NW 315 19,9 C 29,9 C
20.08.2012 18:36 29,8 C 55 % 1016,8 hPa 0,0 l/m 4,3 km/h (1 Bft) W 270 19,8 C 29,8 C
20.08.2012 18:41 29,6 C 57 % 1016,9 hPa 0,0 l/m 5,8 km/h (2 Bft) W-NW 292 20,2 C 29,6 C
20.08.2012 18:46 29,5 C 58 % 1016,8 hPa 0,0 l/m 12,6 km/h (3 Bft) W-NW 292 20,3 C 29,5 C
20.08.2012 18:51 29,4 C 58 % 1016,9 hPa 0,0 l/m 5,8 km/h (2 Bft) W 270 20,3 C 29,4 C
20.08.2012 18:56 29,3 C 59 % 1016,9 hPa 0,0 l/m 11,9 km/h (2 Bft) NW 315 20,4 C 29,3 C
20.08.2012 19:01 29,2 C 59 % 1016,9 hPa 0,0 l/m 9,4 km/h (2 Bft) N-NW 337 20,3 C 29,2 C
20.08.2012 19:06 29,1 C 58 % 1017,0 hPa 0,0 l/m 6,8 km/h (2 Bft) W 270 20,0 C 29,1 C
20.08.2012 19:11 28,9 C 58 % 1017,0 hPa 0,0 l/m 2,9 km/h (1 Bft) N-NO 22 19,8 C 28,9 C
20.08.2012 19:16 28,8 C 59 % 1016,9 hPa 0,0 l/m 3,6 km/h (1 Bft) N-NO 22 20,0 C 28,8 C
20.08.2012 19:21 28,5 C 59 % 1017,0 hPa 0,0 l/m 4,3 km/h (1 Bft) N-NO 22 19,7 C 28,5 C
20.08.2012 19:26 28,3 C 57 % 1016,9 hPa 0,0 l/m 3,6 km/h (1 Bft) N-NO 22 18,9 C 28,3 C
20.08.2012 19:31 28,0 C 57 % 1017,1 hPa 0,0 l/m 0,0 km/h (0 Bft) N 360 18,7 C 28,0 C
20.08.2012 19:36 27,8 C 58 % 1017,0 hPa 0,0 l/m 4,0 km/h (1 Bft) N-NO 22 18,8 C 27,8 C
20.08.2012 19:41 27,6 C 58 % 1017,2 hPa 0,0 l/m 5,4 km/h (1 Bft) N 360 18,6 C 27,6 C
20.08.2012 19:46 27,4 C 58 % 1017,1 hPa 0,0 l/m 5,0 km/h (1 Bft) N 360 18,4 C 27,4 C
20.08.2012 19:51 27,3 C 58 % 1017,2 hPa 0,0 l/m 4,0 km/h (1 Bft) N-NO 22 18,3 C 27,3 C
20.08.2012 19:56 27,1 C 58 % 1017,2 hPa 0,0 l/m 6,5 km/h (2 Bft) N-NO 22 18,1 C 27,1 C
20.08.2012 20:01 27,0 C 58 % 1017,4 hPa 0,0 l/m 2,9 km/h (1 Bft) N 360 18,0 C 27,0 C
20.08.2012 20:06 26,9 C 59 % 1017,3 hPa 0,0 l/m 4,0 km/h (1 Bft) N-NO 22 18,2 C 26,9 C
20.08.2012 20:11 26,8 C 59 % 1017,4 hPa 0,0 l/m 6,5 km/h (2 Bft) N 360 18,1 C 26,8 C
20.08.2012 20:16 26,6 C 59 % 1017,5 hPa 0,0 l/m 4,0 km/h (1 Bft) N 360 17,9 C 26,6 C
20.08.2012 20:21 26,4 C 60 % 1017,6 hPa 0,0 l/m 12,6 km/h (3 Bft) N-NO 22 18,0 C 26,4 C
20.08.2012 20:26 26,3 C 60 % 1017,5 hPa 0,0 l/m 2,5 km/h (1 Bft) N-NO 22 17,9 C 26,3 C
20.08.2012 20:31 26,2 C 60 % 1017,5 hPa 0,0 l/m 6,1 km/h (2 Bft) N-NO 22 17,8 C 26,2 C
20.08.2012 20:36 26,1 C 59 % 1017,7 hPa 0,0 l/m 5,8 km/h (2 Bft) N-NW 337 17,4 C 26,1 C
20.08.2012 20:41 25,9 C 59 % 1017,5 hPa 0,0 l/m 5,0 km/h (1 Bft) N-NO 22 17,3 C 25,9 C
20.08.2012 20:46 25,9 C 60 % 1017,6 hPa 0,0 l/m 2,9 km/h (1 Bft) NO 45 17,5 C 25,9 C
20.08.2012 20:51 25,8 C 60 % 1017,7 hPa 0,0 l/m 2,5 km/h (1 Bft) N-NW 337 17,4 C 25,8 C
20.08.2012 20:56 25,7 C 60 % 1017,8 hPa 0,0 l/m 0,0 km/h (0 Bft) N-NO 22 17,3 C 25,7 C
20.08.2012 21:01 25,6 C 60 % 1017,9 hPa 0,0 l/m 0,0 km/h (0 Bft) N-NW 337 17,2 C 25,6 C
20.08.2012 21:06 25,4 C 61 % 1017,9 hPa 0,0 l/m 3,6 km/h (1 Bft) N 360 17,3 C 25,4 C
20.08.2012 21:11 25,3 C 61 % 1017,8 hPa 0,0 l/m 2,2 km/h (1 Bft) N-NO 22 17,2 C 25,3 C
20.08.2012 21:16 25,2 C 61 % 1017,9 hPa 0,0 l/m 2,9 km/h (1 Bft) N-NO 22 17,1 C 25,2 C
20.08.2012 21:21 25,1 C 61 % 1018,0 hPa 0,0 l/m 4,7 km/h (1 Bft) N-NO 22 17,0 C 25,1 C
20.08.2012 21:26 25,0 C 61 % 1018,0 hPa 0,0 l/m 3,6 km/h (1 Bft) N-NO 22 16,9 C 25,0 C
20.08.2012 21:31 24,9 C 61 % 1018,0 hPa 0,0 l/m 1,1 km/h (1 Bft) NW 315 16,8 C 24,9 C
20.08.2012 21:36 24,9 C 62 % 1018,4 hPa 0,0 l/m 2,2 km/h (1 Bft) W-NW 292 17,1 C 24,9 C
20.08.2012 21:41 24,8 C 63 % 1018,7 hPa 0,0 l/m 0,0 km/h (0 Bft) W 270 17,3 C 24,8 C
20.08.2012 21:46 24,7 C 63 % 1018,9 hPa 0,0 l/m 1,8 km/h (1 Bft) N-NW 337 17,2 C 24,7 C
20.08.2012 21:51 24,6 C 63 % 1019,0 hPa 0,0 l/m 0,0 km/h (0 Bft) W-NW 292 17,1 C 24,6 C
20.08.2012 21:56 24,5 C 63 % 1018,9 hPa 0,0 l/m 2,2 km/h (1 Bft) N 360 17,0 C 24,5 C
20.08.2012 22:01 24,4 C 64 % 1018,9 hPa 0,0 l/m 0,0 km/h (0 Bft) N-NO 22 17,1 C 24,4 C
20.08.2012 22:06 24,4 C 64 % 1018,9 hPa 0,0 l/m 4,7 km/h (1 Bft) N-NO 22 17,1 C 24,4 C
20.08.2012 22:11 24,4 C 64 % 1018,8 hPa 0,0 l/m 4,0 km/h (1 Bft) N 360 17,1 C 24,4 C
20.08.2012 22:16 24,4 C 64 % 1018,8 hPa 0,0 l/m 5,8 km/h (2 Bft) N 360 17,1 C 24,4 C
20.08.2012 22:21 24,3 C 65 % 1018,8 hPa 0,0 l/m 3,2 km/h (1 Bft) N 360 17,3 C 24,3 C
20.08.2012 22:26 24,3 C 65 % 1018,8 hPa 0,0 l/m 8,6 km/h (2 Bft) N-NO 22 17,3 C 24,3 C
20.08.2012 22:31 24,2 C 65 % 1018,6 hPa 0,0 l/m 11,2 km/h (2 Bft) N 360 17,2 C 24,2 C
20.08.2012 22:36 24,1 C 65 % 1018,6 hPa 0,0 l/m 10,1 km/h (2 Bft) N-NO 22 17,1 C 24,1 C
20.08.2012 22:41 24,1 C 65 % 1018,6 hPa 0,0 l/m 7,2 km/h (2 Bft) N 360 17,1 C 24,1 C
20.08.2012 22:46 23,9 C 63 % 1018,7 hPa 0,0 l/m 5,0 km/h (1 Bft) N 360 16,4 C 23,9 C
20.08.2012 22:51 23,9 C 62 % 1018,7 hPa 0,0 l/m 19,8 km/h (3 Bft) N-NO 22 16,2 C 23,9 C
20.08.2012 22:56 23,8 C 62 % 1018,7 hPa 0,0 l/m 8,6 km/h (2 Bft) N-NO 22 16,1 C 23,8 C
20.08.2012 23:01 23,7 C 62 % 1018,6 hPa 0,0 l/m 4,7 km/h (1 Bft) N 360 16,0 C 23,7 C
20.08.2012 23:06 23,6 C 62 % 1018,6 hPa 0,0 l/m 5,8 km/h (2 Bft) N 360 15,9 C 23,6 C
20.08.2012 23:11 23,4 C 63 % 1018,6 hPa 0,0 l/m 11,2 km/h (2 Bft) N-NO 22 15,9 C 23,4 C
20.08.2012 23:16 23,3 C 63 % 1018,6 hPa 0,0 l/m 5,8 km/h (2 Bft) N-NO 22 15,9 C 23,3 C
20.08.2012 23:21 23,2 C 64 % 1018,7 hPa 0,0 l/m 8,6 km/h (2 Bft) N 360 16,0 C 23,2 C
20.08.2012 23:26 23,1 C 64 % 1018,9 hPa 0,0 l/m 1,4 km/h (1 Bft) NW 315 15,9 C 23,1 C
20.08.2012 23:31 22,9 C 64 % 1019,1 hPa 0,0 l/m 6,1 km/h (2 Bft) N 360 15,7 C 22,9 C
20.08.2012 23:36 22,9 C 64 % 1019,2 hPa 0,0 l/m 5,4 km/h (1 Bft) N-NO 22 15,7 C 22,9 C
20.08.2012 23:41 22,8 C 65 % 1019,3 hPa 0,0 l/m 3,2 km/h (1 Bft) N 360 15,9 C 22,8 C
20.08.2012 23:46 22,7 C 65 % 1019,3 hPa 0,0 l/m 1,4 km/h (1 Bft) N-NO 22 15,8 C 22,7 C
20.08.2012 23:51 22,6 C 65 % 1019,4 hPa 0,0 l/m 4,0 km/h (1 Bft) N-NO 22 15,7 C 22,6 C
20.08.2012 23:56 22,4 C 66 % 1019,3 hPa 0,0 l/m 5,0 km/h (1 Bft) N-NO 22 15,7 C 22,4 C
_ Min-Zeit 06:16 13:36 02:21 - 00:06 - - 00:56 06:16
Minimum _ 20,4 C 39 % 1015,1 hPa - 0,0 km/h (0 Bft) - - 14,4 C 20,4 C
_ Max-Zeit 13:46 06:11 23:51 14:26 22:51 - - 16:11 13:46
Maximum _ 35,4 C 74 % 1019,4 hPa 1,0 l/m 19,8 km/h
N-NO (3 Bft)
- - 21,4 C 35,4 C
Durchschnitt _ 26,2 C 60 % 1016,4 hPa #1,0 l/m 4,7 km/h (1 Bft) N-NO - 17,5 C 26,2 C
(c) by David Heller